Time;durP1;ratioP1;P1;durP2;ratioP2;P2;SDS_P1;SDS_P2;PMS_P1;PMS_P2;Temp;Humidity;BMP_temperature;BMP_pressure;BME280_temperature;BME280_humidity;BME280_pressure;Samples;Min_cycle;Max_cycle;Signal;HPM_P1;HPM_P2
2023/05/25 00:00:28;;;;;;;11.20;5.37;;;11.80;51.00;;;;;;5093205;28;20657;-67
2023/05/25 00:02:54;;;;;;;12.13;5.20;;;11.80;51.80;;;;;;5092952;28;20171;-67
2023/05/25 00:05:20;;;;;;;10.60;5.70;;;11.70;51.80;;;;;;5092833;28;20183;-67
2023/05/25 00:07:46;;;;;;;11.70;5.60;;;11.80;53.60;;;;;;5093535;28;20176;-67
2023/05/25 00:10:12;;;;;;;12.67;5.57;;;11.70;54.70;;;;;;5093161;28;20183;-66
2023/05/25 00:12:37;;;;;;;11.00;5.60;;;11.70;58.30;;;;;;5093194;28;20190;-67
2023/05/25 00:15:07;;;;;;;13.00;5.60;;;11.70;62.10;;;;;;5092871;28;20707;-67
2023/05/25 00:17:35;;;;;;;10.73;5.53;;;11.70;66.50;;;;;;5091922;28;20182;-66
2023/05/25 00:20:08;;;;;;;11.80;5.53;;;11.60;70.60;;;;;;5093193;28;20318;-66
2023/05/25 00:22:37;;;;;;;11.13;5.50;;;11.60;73.70;;;;;;5093105;28;20638;-67
2023/05/25 00:25:03;;;;;;;9.20;5.50;;;11.60;76.60;;;;;;5093122;28;20184;-67
2023/05/25 00:27:30;;;;;;;10.07;5.77;;;11.50;77.80;;;;;;5092941;28;20168;-66
2023/05/25 00:29:56;;;;;;;10.43;5.30;;;11.50;84.20;;;;;;5092591;28;20199;-66
2023/05/25 00:32:21;;;;;;;10.77;5.93;;;11.50;88.90;;;;;;5092954;28;20363;-66
2023/05/25 00:34:47;;;;;;;15.17;6.20;;;11.50;91.10;;;;;;5093165;28;20652;-66
2023/05/25 00:37:13;;;;;;;13.47;6.10;;;11.40;92.30;;;;;;5092965;28;20171;-66
2023/05/25 00:39:39;;;;;;;13.37;6.30;;;11.40;94.10;;;;;;5092790;28;20218;-66
2023/05/25 00:42:06;;;;;;;17.07;6.23;;;11.40;95.90;;;;;;5092851;28;20172;-66
2023/05/25 00:44:32;;;;;;;12.60;6.33;;;11.40;97.70;;;;;;5092472;28;20168;-66
2023/05/25 00:46:58;;;;;;;11.17;6.53;;;11.40;99.10;;;;;;5092767;28;20191;-66
2023/05/25 00:49:24;;;;;;;13.80;6.50;;;11.30;99.70;;;;;;5092830;28;20626;-66
2023/05/25 00:51:51;;;;;;;14.23;6.50;;;11.30;99.90;;;;;;5092999;28;20175;-66
2023/05/25 00:54:18;;;;;;;13.70;6.97;;;11.30;99.90;;;;;;5092961;28;20262;-66
2023/05/25 00:56:51;;;;;;;13.00;6.57;;;11.30;99.90;;;;;;5092689;28;20183;-66
2023/05/25 00:59:35;;;;;;;13.57;6.77;;;11.30;99.90;;;;;;5092352;28;20204;-66
2023/05/25 01:02:10;;;;;;;14.30;7.10;;;11.20;99.90;;;;;;5093044;28;20237;-66
2023/05/25 01:04:44;;;;;;;18.07;7.17;;;11.20;99.90;;;;;;5092744;28;20569;-66
2023/05/25 01:07:11;;;;;;;13.23;6.60;;;11.20;99.90;;;;;;5092481;28;20167;-66
2023/05/25 01:09:43;;;;;;;22.40;7.47;;;11.20;99.90;;;;;;5092461;28;20176;-66
2023/05/25 01:12:10;;;;;;;32.13;9.63;;;11.10;99.90;;;;;;5092678;28;20163;-66
2023/05/25 01:14:37;;;;;;;28.13;8.43;;;11.10;99.90;;;;;;5092840;28;20175;-66
2023/05/25 01:17:03;;;;;;;13.27;6.43;;;11.10;99.90;;;;;;5096293;28;20187;-66
2023/05/25 01:19:32;;;;;;;14.60;6.83;;;11.10;99.90;;;;;;5096161;28;20203;-66
2023/05/25 01:22:20;;;;;;;15.90;6.87;;;11.10;99.90;;;;;;5096202;28;20225;-66
2023/05/25 01:24:51;;;;;;;11.97;6.60;;;11.00;99.90;;;;;;5096702;28;20179;-66
2023/05/25 01:28:06;;;;;;;14.20;6.90;;;11.00;99.90;;;;;;5095702;28;20168;-66
2023/05/25 01:30:34;;;;;;;13.50;6.90;;;11.00;99.90;;;;;;5033155;28;20217;-66
2023/05/25 01:33:00;;;;;;;13.43;7.37;;;11.00;99.90;;;;;;5033569;28;20233;-66
2023/05/25 01:35:26;;;;;;;13.03;6.90;;;11.00;99.90;;;;;;5033568;28;20182;-66
2023/05/25 01:37:52;;;;;;;11.10;6.67;;;11.00;99.90;;;;;;5033716;28;20178;-66
2023/05/25 01:40:18;;;;;;;15.93;6.70;;;11.10;99.90;;;;;;5033675;28;20671;-66
2023/05/25 01:42:44;;;;;;;18.87;7.20;;;11.10;99.90;;;;;;5033165;28;20174;-65
2023/05/25 01:45:11;;;;;;;16.97;7.03;;;11.00;99.90;;;;;;5033484;28;20548;-66
2023/05/25 01:47:58;;;;;;;15.37;7.07;;;11.00;99.90;;;;;;5033510;28;20316;-66
2023/05/25 01:50:28;;;;;;;11.23;7.00;;;10.90;99.90;;;;;;5033435;28;20228;-66
2023/05/25 01:53:05;;;;;;;11.13;6.93;;;10.90;99.90;;;;;;5033235;28;20182;-66
2023/05/25 01:55:37;;;;;;;12.73;7.10;;;10.90;99.90;;;;;;5033272;28;20200;-66
2023/05/25 01:58:05;;;;;;;15.37;7.43;;;10.80;99.90;;;;;;5032712;28;20212;-66
2023/05/25 02:00:32;;;;;;;12.57;7.40;;;10.80;99.90;;;;;;5033351;28;20182;-66
2023/05/25 02:02:59;;;;;;;15.37;7.57;;;10.80;99.90;;;;;;5033098;28;20170;-66
2023/05/25 02:05:26;;;;;;;13.87;7.60;;;10.80;99.90;;;;;;5034569;28;20177;-66
2023/05/25 02:07:52;;;;;;;15.60;7.50;;;10.80;99.90;;;;;;5095185;28;20691;-66
2023/05/25 02:10:18;;;;;;;15.23;7.30;;;10.70;99.90;;;;;;5095148;28;20172;-66
2023/05/25 02:12:44;;;;;;;16.23;8.70;;;10.60;99.90;;;;;;5094720;28;20167;-66
2023/05/25 02:15:10;;;;;;;16.87;8.27;;;10.70;99.90;;;;;;5095134;28;20251;-66
2023/05/25 02:17:37;;;;;;;12.97;8.10;;;10.60;99.90;;;;;;5095204;28;20180;-66
2023/05/25 02:20:07;;;;;;;15.33;8.37;;;10.60;99.90;;;;;;5093816;28;20675;-66
2023/05/25 02:22:32;;;;;;;16.27;8.40;;;10.50;99.90;;;;;;5095152;28;20263;-66
2023/05/25 02:24:58;;;;;;;17.23;8.00;;;10.50;99.90;;;;;;5094724;28;20202;-66
2023/05/25 02:27:24;;;;;;;15.43;8.33;;;10.50;99.90;;;;;;5094229;28;20309;-66
2023/05/25 02:29:52;;;;;;;21.37;8.87;;;10.60;99.90;;;;;;5095043;28;20198;-66
2023/05/25 02:32:17;;;;;;;14.10;7.67;;;10.50;99.90;;;;;;5094718;28;20235;-66
2023/05/25 02:34:43;;;;;;;20.97;8.37;;;10.40;99.90;;;;;;5094756;28;20184;-66
2023/05/25 02:37:08;;;;;;;15.83;8.43;;;10.50;99.90;;;;;;5094843;28;20172;-65
2023/05/25 02:39:34;;;;;;;19.00;8.27;;;10.50;99.90;;;;;;5094241;28;20308;-66
2023/05/25 02:42:01;;;;;;;15.77;8.17;;;10.50;99.90;;;;;;5094613;28;20231;-65
2023/05/25 02:44:26;;;;;;;20.13;8.37;;;10.40;99.90;;;;;;5094649;28;20207;-65
2023/05/25 02:46:52;;;;;;;18.50;8.27;;;10.40;99.90;;;;;;5094562;28;20171;-65
2023/05/25 02:49:18;;;;;;;16.57;8.30;;;10.40;99.90;;;;;;5094555;28;20168;-65
2023/05/25 02:51:43;;;;;;;15.70;8.30;;;10.40;99.90;;;;;;5094306;28;20647;-66
2023/05/25 02:54:09;;;;;;;17.90;8.77;;;10.40;99.90;;;;;;5094196;28;20199;-66
2023/05/25 02:56:35;;;;;;;18.40;8.57;;;10.40;99.90;;;;;;5094013;28;20171;-65
2023/05/25 02:59:00;;;;;;;17.27;9.60;;;10.40;99.90;;;;;;5094080;28;20215;-66
2023/05/25 03:01:29;;;;;;;16.57;9.17;;;10.40;99.90;;;;;;5094359;28;20164;-66
2023/05/25 03:03:55;;;;;;;18.33;9.10;;;10.40;99.90;;;;;;5094248;28;20204;-66
2023/05/25 03:06:21;;;;;;;18.57;8.87;;;10.40;99.90;;;;;;5094180;28;20168;-66
2023/05/25 03:08:47;;;;;;;15.47;8.73;;;10.40;99.90;;;;;;5093962;28;20642;-66
2023/05/25 03:11:13;;;;;;;24.73;9.10;;;10.30;99.90;;;;;;5093912;28;20172;-66
2023/05/25 03:13:40;;;;;;;20.23;8.60;;;10.30;99.90;;;;;;5094088;28;20172;-65
2023/05/25 03:16:06;;;;;;;21.97;8.67;;;10.20;99.90;;;;;;5093887;28;20168;-66
2023/05/25 03:18:31;;;;;;;21.37;7.83;;;10.20;99.90;;;;;;5093485;28;20215;-65
2023/05/25 03:20:57;;;;;;;16.07;8.70;;;10.20;99.90;;;;;;5093943;28;20179;-65
2023/05/25 03:23:22;;;;;;;20.00;9.10;;;10.10;99.90;;;;;;5093402;28;20186;-65
2023/05/25 03:25:49;;;;;;;19.87;8.87;;;10.10;99.90;;;;;;5093749;28;20178;-66
2023/05/25 03:28:15;;;;;;;15.43;9.10;;;10.10;99.90;;;;;;5093476;28;20164;-66
2023/05/25 03:30:40;;;;;;;19.23;9.07;;;10.00;99.90;;;;;;5093750;28;20179;-66
2023/05/25 03:33:06;;;;;;;14.83;9.00;;;10.10;99.90;;;;;;5093192;28;20549;-67
2023/05/25 03:35:32;;;;;;;22.77;9.63;;;10.10;99.90;;;;;;5093450;28;20168;-65
2023/05/25 03:37:57;;;;;;;17.37;8.73;;;10.10;99.90;;;;;;5092577;28;20597;-66
2023/05/25 03:40:23;;;;;;;22.03;10.13;;;10.20;99.90;;;;;;5093124;28;20634;-66
2023/05/25 03:42:48;;;;;;;22.17;9.37;;;10.20;99.90;;;;;;5093336;28;20608;-66
2023/05/25 03:45:14;;;;;;;28.07;10.33;;;10.10;99.90;;;;;;5092988;28;20168;-65
2023/05/25 03:47:40;;;;;;;21.03;10.17;;;10.10;99.90;;;;;;5091917;28;20646;-65
2023/05/25 03:50:06;;;;;;;22.60;10.20;;;10.20;99.90;;;;;;5092978;28;20164;-66
2023/05/25 03:52:32;;;;;;;27.53;10.67;;;10.20;99.90;;;;;;5092860;28;20699;-65
2023/05/25 03:55:00;;;;;;;19.10;10.27;;;10.20;99.90;;;;;;5093022;28;20168;-67
2023/05/25 03:57:26;;;;;;;20.77;9.87;;;10.30;99.90;;;;;;5092861;28;20538;-67
2023/05/25 03:59:52;;;;;;;20.70;9.43;;;10.30;99.90;;;;;;5092622;28;20247;-66
2023/05/25 04:02:21;;;;;;;18.23;9.17;;;10.40;99.90;;;;;;5093054;28;20191;-67
2023/05/25 04:04:50;;;;;;;24.37;9.53;;;10.40;99.90;;;;;;5093061;28;20211;-67
2023/05/25 04:07:17;;;;;;;16.37;8.90;;;10.40;99.90;;;;;;5092572;28;20200;-67
2023/05/25 04:09:43;;;;;;;23.70;9.07;;;10.50;99.90;;;;;;5092388;28;20264;-66
2023/05/25 04:12:09;;;;;;;18.43;8.93;;;10.70;99.90;;;;;;5093060;28;20206;-67
2023/05/25 04:14:35;;;;;;;16.47;8.50;;;10.90;99.90;;;;;;5092409;28;20178;-67
2023/05/25 04:17:01;;;;;;;17.27;9.40;;;11.00;99.90;;;;;;5092558;28;20168;-66
2023/05/25 04:19:26;;;;;;;26.97;9.50;;;11.30;99.90;;;;;;5092714;28;20238;-66
2023/05/25 04:21:52;;;;;;;15.43;8.40;;;11.50;99.90;;;;;;5091788;28;20214;-65
2023/05/25 04:24:17;;;;;;;21.50;8.23;;;11.50;99.90;;;;;;5092739;28;20171;-66
2023/05/25 04:26:45;;;;;;;21.00;8.33;;;11.70;99.90;;;;;;5091166;28;20530;-66
2023/05/25 04:29:10;;;;;;;14.10;8.17;;;12.00;99.90;;;;;;5092929;28;20180;-67
2023/05/25 04:31:37;;;;;;;20.00;8.47;;;12.40;99.90;;;;;;5092188;28;20222;-67
2023/05/25 04:34:03;;;;;;;16.53;8.10;;;12.60;99.00;;;;;;5092485;28;20262;-66
2023/05/25 04:36:31;;;;;;;18.13;8.33;;;12.90;91.10;;;;;;5092445;28;20263;-65
2023/05/25 04:39:01;;;;;;;18.23;7.13;;;13.20;70.50;;;;;;5092426;28;20569;-66
2023/05/25 04:41:28;;;;;;;18.37;7.30;;;13.30;57.50;;;;;;5092630;28;20179;-67
2023/05/25 04:43:54;;;;;;;14.17;7.07;;;13.70;52.70;;;;;;5092529;28;20179;-66
2023/05/25 04:46:20;;;;;;;15.37;7.03;;;13.80;43.70;;;;;;5092450;28;20172;-66
2023/05/25 04:48:45;;;;;;;15.37;7.73;;;13.90;39.30;;;;;;5092109;28;20225;-66
2023/05/25 04:51:11;;;;;;;17.23;7.10;;;14.40;32.30;;;;;;5093866;28;20692;-65
2023/05/25 04:53:37;;;;;;;13.77;7.03;;;14.80;8.90;;;;;;5096025;28;20187;-66
2023/05/25 04:56:03;;;;;;;14.27;7.03;;;14.80;13.70;;;;;;5096365;28;20197;-65
2023/05/25 04:58:29;;;;;;;16.10;7.27;;;15.30;1.80;;;;;;5095530;28;20527;-66
2023/05/25 05:00:55;;;;;;;22.47;7.63;;;15.50;1.00;;;;;;5095532;28;20164;-66
2023/05/25 05:03:21;;;;;;;17.10;6.70;;;15.90;1.00;;;;;;5094782;28;20188;-65
2023/05/25 05:05:46;;;;;;;16.73;6.93;;;15.60;1.00;;;;;;5095571;28;20172;-65
2023/05/25 05:08:12;;;;;;;16.03;6.73;;;16.30;1.00;;;;;;5095390;28;20156;-66
2023/05/25 05:10:38;;;;;;;16.97;6.80;;;15.80;1.00;;;;;;5095579;28;20595;-65
2023/05/25 05:13:04;;;;;;;16.07;7.10;;;15.50;1.00;;;;;;5095178;28;20205;-67
2023/05/25 05:15:29;;;;;;;11.77;6.67;;;15.80;1.00;;;;;;5095705;28;20262;-65
2023/05/25 05:17:55;;;;;;;10.30;6.37;;;16.50;1.00;;;;;;5095712;28;20588;-65
2023/05/25 05:20:23;;;;;;;10.50;6.17;;;16.80;1.00;;;;;;5093349;28;20211;-67
2023/05/25 05:22:49;;;;;;;9.97;6.30;;;16.70;1.00;;;;;;5093313;28;20172;-66
2023/05/25 05:25:14;;;;;;;13.20;6.60;;;16.80;1.00;;;;;;5095395;28;20168;-66
2023/05/25 05:27:40;;;;;;;14.77;6.97;;;17.80;1.00;;;;;;5095147;28;20687;-67
2023/05/25 05:30:06;;;;;;;16.50;6.80;;;17.70;1.00;;;;;;5095104;28;20172;-67
2023/05/25 05:32:32;;;;;;;13.48;6.75;;;17.80;1.00;;;;;;5094423;28;20223;-66
2023/05/25 05:34:57;;;;;;;18.63;6.65;;;18.50;1.00;;;;;;5094810;28;20538;-66
2023/05/25 05:37:23;;;;;;;12.13;6.20;;;18.70;1.00;;;;;;5094887;28;20214;-68
2023/05/25 05:39:51;;;;;;;9.57;6.00;;;18.40;1.00;;;;;;5093993;28;20615;-68
2023/05/25 05:42:16;;;;;;;11.10;6.25;;;18.90;1.00;;;;;;5093390;28;20535;-68
2023/05/25 05:44:42;;;;;;;12.20;6.00;;;18.20;1.00;;;;;;5094751;28;20175;-66
2023/05/25 05:47:08;;;;;;;12.23;5.93;;;18.50;99.90;;;;;;5094351;28;20167;-67
2023/05/25 05:49:33;;;;;;;12.68;6.22;;;18.80;99.90;;;;;;5093007;28;20180;-69
2023/05/25 05:51:59;;;;;;;12.73;5.93;;;18.20;99.90;;;;;;5093311;28;20176;-68
2023/05/25 05:54:26;;;;;;;9.68;6.35;;;18.00;1.00;;;;;;5094288;28;20258;-68
2023/05/25 05:56:52;;;;;;;14.20;6.82;;;18.70;99.90;;;;;;5094145;28;20199;-67
2023/05/25 05:59:20;;;;;;;9.55;5.95;;;19.50;1.00;;;;;;5093868;28;20629;-68
2023/05/25 06:01:45;;;;;;;9.52;6.10;;;19.90;1.00;;;;;;5093456;28;20176;-69
2023/05/25 06:04:11;;;;;;;10.23;6.30;;;19.90;99.90;;;;;;5093726;28;20199;-70
2023/05/25 06:06:39;;;;;;;13.52;6.07;;;20.90;1.00;;;;;;5093561;28;20160;-69
2023/05/25 06:09:05;;;;;;;9.15;5.35;;;21.60;1.00;;;;;;5092822;28;20263;-68
2023/05/25 06:11:36;;;;;;;10.98;5.85;;;21.30;1.00;;;;;;5093568;28;20627;-69
2023/05/25 06:14:02;;;;;;;12.55;6.07;;;20.20;1.00;;;;;;5093838;28;20183;-68
2023/05/25 06:16:28;;;;;;;14.52;6.30;;;19.90;99.90;;;;;;5093661;28;20619;-70
2023/05/25 06:18:54;;;;;;;16.55;6.07;;;20.40;99.90;;;;;;5092757;28;20257;-68
2023/05/25 06:21:19;;;;;;;10.70;5.90;;;20.40;99.90;;;;;;5093303;28;20172;-69
2023/05/25 06:23:46;;;;;;;9.52;5.43;;;21.50;1.00;;;;;;5093404;28;20160;-68
2023/05/25 06:26:12;;;;;;;15.40;6.05;;;21.30;1.00;;;;;;5093363;28;20168;-70
2023/05/25 06:28:37;;;;;;;11.65;6.57;;;21.30;99.90;;;;;;5093743;28;20255;-71
2023/05/25 06:31:03;;;;;;;10.13;5.75;;;21.60;99.90;;;;;;5092742;28;20254;-69
2023/05/25 06:33:28;;;;;;;9.98;5.47;;;22.10;99.90;;;;;;5092661;28;20593;-69
2023/05/25 06:35:59;;;;;;;15.10;7.38;;;22.80;1.00;;;;;;5093516;28;20251;-71
2023/05/25 06:38:25;;;;;;;9.57;5.88;;;23.70;1.00;;;;;;5093464;28;20208;-70
2023/05/25 06:40:50;;;;;;;14.38;6.13;;;23.90;99.90;;;;;;5093057;28;20172;-69
2023/05/25 06:43:16;;;;;;;15.80;6.18;;;23.60;1.00;;;;;;5093291;28;20713;-70
2023/05/25 06:45:42;;;;;;;10.95;5.82;;;23.60;99.90;;;;;;5092841;28;20168;-71
2023/05/25 06:48:07;;;;;;;11.32;5.68;;;23.50;1.00;;;;;;5086046;28;20272;-69
2023/05/25 06:50:33;;;;;;;11.15;6.05;;;24.20;99.90;;;;;;5074550;28;20184;-71
2023/05/25 06:52:58;;;;;;;13.77;6.38;;;24.60;16.80;;;;;;5072492;28;20543;-69
2023/05/25 06:55:24;;;;;;;11.48;6.00;;;23.90;99.90;;;;;;5071916;28;20655;-69
2023/05/25 06:57:50;;;;;;;12.38;8.00;;;24.50;79.20;;;;;;5076621;28;20179;-69
2023/05/25 07:00:16;;;;;;;16.15;5.90;;;25.10;1.00;;;;;;5071717;28;20302;-71
2023/05/25 07:02:41;;;;;;;11.80;5.50;;;25.20;1.00;;;;;;5071291;28;20177;-70
2023/05/25 07:05:07;;;;;;;10.07;5.30;;;24.80;1.00;;;;;;5069562;28;20491;-70
2023/05/25 07:07:33;;;;;;;10.05;5.38;;;24.10;1.00;;;;;;5073854;28;20295;-71
2023/05/25 07:09:58;;;;;;;12.38;5.50;;;24.30;1.00;;;;;;5073298;28;20177;-73
2023/05/25 07:12:24;;;;;;;10.10;4.82;;;23.30;1.00;;;;;;5091715;28;20211;-71
2023/05/25 07:14:50;;;;;;;14.90;5.30;;;23.90;99.90;;;;;;5081318;28;20297;-72
2023/05/25 07:17:15;;;;;;;11.57;5.38;;;24.60;1.00;;;;;;5074821;28;20172;-71
2023/05/25 07:19:42;;;;;;;8.00;5.47;;;24.70;1.00;;;;;;5078792;28;20207;-72
2023/05/25 07:22:11;;;;;;;10.30;5.40;;;25.60;1.00;;;;;;5085383;28;20177;-72
2023/05/25 07:24:36;;;;;;;8.80;5.40;;;24.60;1.00;;;;;;5082095;28;20184;-72
2023/05/25 07:27:02;;;;;;;10.68;4.93;;;24.50;1.00;;;;;;5101904;28;20191;-73
2023/05/25 07:29:28;;;;;;;11.43;5.30;;;24.20;1.00;;;;;;5101688;28;20198;-73
2023/05/25 07:31:54;;;;;;;8.65;4.70;;;24.70;1.00;;;;;;5087441;28;20224;-72
2023/05/25 07:34:20;;;;;;;11.98;5.10;;;24.80;1.00;;;;;;5083180;28;20205;-73
2023/05/25 07:36:46;;;;;;;10.55;5.00;;;25.70;1.00;;;;;;5107308;28;20168;-72
2023/05/25 07:39:11;;;;;;;7.35;4.88;;;25.90;1.00;;;;;;5081145;28;20235;-73
2023/05/25 07:41:40;;;;;;;7.03;4.55;;;26.10;1.00;;;;;;5088518;28;20174;-74
2023/05/25 07:44:06;;;;;;;8.23;3.95;;;26.20;1.00;;;;;;5083429;28;20651;-72
2023/05/25 07:46:32;;;;;;;8.57;4.53;;;24.90;1.00;;;;;;5103081;28;20179;-71
2023/05/25 07:48:58;;;;;;;9.25;4.22;;;23.70;1.00;;;;;;5103730;28;20187;-72
2023/05/25 07:51:25;;;;;;;10.25;4.78;;;24.20;1.00;;;;;;5087388;28;20210;-72
2023/05/25 07:53:52;;;;;;;10.90;4.60;;;23.80;1.00;;;;;;5091144;28;20184;-72
2023/05/25 07:56:18;;;;;;;8.80;4.65;;;24.40;1.00;;;;;;5086452;28;20262;-71
2023/05/25 07:58:45;;;;;;;7.35;4.25;;;23.90;1.00;;;;;;5083166;28;20290;-71
2023/05/25 08:01:10;;;;;;;6.53;4.00;;;23.70;5.20;;;;;;5084997;28;20652;-74
2023/05/25 08:03:36;;;;;;;7.45;3.97;;;23.70;1.00;;;;;;5099748;28;20189;-73
2023/05/25 08:06:02;;;;;;;9.57;4.18;;;23.30;1.00;;;;;;5082541;28;20262;-73
2023/05/25 08:08:27;;;;;;;9.60;4.43;;;22.80;99.90;;;;;;5090403;28;20639;-75
2023/05/25 08:10:53;;;;;;;9.52;4.60;;;23.20;99.90;;;;;;5098339;28;20179;-73
2023/05/25 08:13:19;;;;;;;8.25;4.30;;;23.60;26.60;;;;;;5078514;28;20177;-73
2023/05/25 08:15:44;;;;;;;10.00;4.25;;;22.50;99.90;;;;;;5080143;28;20706;-73
2023/05/25 08:18:10;;;;;;;7.05;4.18;;;23.40;99.90;;;;;;5094626;28;20591;-73
2023/05/25 08:20:36;;;;;;;10.75;4.80;;;23.70;1.00;;;;;;5092780;28;20180;-75
2023/05/25 08:23:03;;;;;;;9.38;4.65;;;25.20;1.00;;;;;;5096907;28;20185;-74
2023/05/25 08:25:29;;;;;;;9.68;4.13;;;26.70;1.00;;;;;;5097381;28;20182;-76
2023/05/25 08:27:54;;;;;;;8.23;4.68;;;26.90;99.90;;;;;;5095344;28;20260;-77
2023/05/25 08:30:20;;;;;;;15.70;6.85;;;26.80;99.90;;;;;;5087279;28;20195;-74
2023/05/25 08:32:46;;;;;;;8.43;4.63;;;26.30;1.00;;;;;;5095154;28;20234;-72
2023/05/25 08:35:12;;;;;;;10.20;4.93;;;26.20;1.00;;;;;;5086666;28;20188;-73
2023/05/25 08:37:38;;;;;;;12.57;5.47;;;23.80;1.00;;;;;;5086306;28;20252;-74
2023/05/25 08:40:06;;;;;;;8.13;4.38;;;23.60;1.00;;;;;;5108255;28;20962;-73
2023/05/25 08:42:32;;;;;;;8.77;4.38;;;24.10;1.00;;;;;;5094774;28;20184;-72
2023/05/25 08:44:58;;;;;;;11.75;4.45;;;24.20;1.00;;;;;;5106912;28;20653;-72
2023/05/25 08:47:30;;;;;;;10.38;4.78;;;23.80;1.00;;;;;;5097515;28;20554;-71
2023/05/25 08:49:56;;;;;;;7.95;4.07;;;22.40;99.90;;;;;;5098730;28;20191;-71
2023/05/25 08:52:25;;;;;;;9.40;4.20;;;21.70;99.90;;;;;;5091827;28;20191;-70
2023/05/25 08:54:54;;;;;;;10.95;4.50;;;22.60;1.00;;;;;;5081388;28;20171;-71
2023/05/25 08:57:21;;;;;;;7.25;4.50;;;23.40;99.90;;;;;;5089116;28;20183;-71
2023/05/25 08:59:50;;;;;;;6.05;4.70;;;22.70;99.90;;;;;;5088767;28;20216;-71
2023/05/25 09:02:29;;;;;;;9.07;4.43;;;23.80;1.00;;;;;;5088071;28;20192;-69
2023/05/25 09:04:55;;;;;;;9.00;4.70;;;21.80;99.90;;;;;;5090894;28;20163;-71
2023/05/25 09:07:21;;;;;;;9.55;4.47;;;21.30;99.90;;;;;;5084747;28;20192;-72
2023/05/25 09:09:47;;;;;;;10.20;4.60;;;22.80;1.00;;;;;;5086690;28;20208;-70
2023/05/25 09:12:14;;;;;;;7.05;4.50;;;23.60;22.80;;;;;;5088615;28;20279;-71
2023/05/25 09:14:46;;;;;;;7.32;4.40;;;24.70;1.00;;;;;;5087486;28;20177;-72
2023/05/25 09:17:17;;;;;;;7.93;4.65;;;26.20;1.00;;;;;;5075710;28;20172;-70
2023/05/25 09:19:43;;;;;;;6.35;4.47;;;26.60;1.00;;;;;;5087140;28;20223;-70
2023/05/25 09:22:11;;;;;;;9.40;4.97;;;25.30;1.00;;;;;;5083629;28;20173;-71
2023/05/25 09:24:40;;;;;;;8.60;5.15;;;23.20;1.00;;;;;;5095129;28;20173;-69
2023/05/25 09:27:09;;;;;;;12.52;4.75;;;22.40;1.00;;;;;;5086607;28;20163;-69
2023/05/25 09:29:35;;;;;;;23.80;6.20;;;22.50;1.00;;;;;;5098236;28;20277;-71
2023/05/25 09:32:04;;;;;;;9.90;4.88;;;23.10;99.90;;;;;;5089078;28;20219;-69
2023/05/25 09:34:34;;;;;;;18.38;5.70;;;23.70;1.00;;;;;;5109215;28;20184;-70
2023/05/25 09:37:02;;;;;;;24.15;6.30;;;23.40;63.90;;;;;;5110867;28;20167;-68
2023/05/25 09:39:29;;;;;;;13.20;5.22;;;22.60;99.90;;;;;;5087813;28;20212;-69
2023/05/25 09:41:56;;;;;;;10.90;4.97;;;21.40;1.00;;;;;;5091918;28;20179;-70
2023/05/25 09:44:22;;;;;;;10.88;4.60;;;20.90;99.90;;;;;;5078309;28;20181;-71
2023/05/25 09:46:47;;;;;;;10.15;4.30;;;21.80;1.00;;;;;;5095594;28;20182;-71
2023/05/25 09:49:13;;;;;;;6.10;4.05;;;21.70;99.90;;;;;;5092784;28;20594;-70
2023/05/25 09:51:39;;;;;;;9.48;4.57;;;21.30;49.40;;;;;;5088574;28;20578;-71
2023/05/25 09:54:09;;;;;;;11.57;5.00;;;21.40;99.90;;;;;;5104295;28;20202;-71
2023/05/25 09:56:35;;;;;;;6.93;3.75;;;22.00;1.00;;;;;;5086120;28;20497;-70
2023/05/25 09:59:01;;;;;;;7.13;4.55;;;22.70;1.00;;;;;;5078557;28;20731;-70
2023/05/25 10:01:27;;;;;;;10.10;4.50;;;21.10;99.90;;;;;;5077775;28;20195;-69
2023/05/25 10:03:55;;;;;;;5.63;4.15;;;20.40;1.00;;;;;;5089937;28;20604;-69
2023/05/25 10:06:22;;;;;;;7.82;4.47;;;20.20;99.90;;;;;;5091916;28;20221;-69
2023/05/25 10:08:48;;;;;;;5.45;3.95;;;19.90;99.90;;;;;;5087943;28;20660;-71
2023/05/25 10:11:15;;;;;;;10.32;4.13;;;19.80;1.00;;;;;;5085753;28;20647;-69
2023/05/25 10:13:45;;;;;;;5.35;3.85;;;20.50;1.00;;;;;;5097193;28;20175;-68
2023/05/25 10:16:17;;;;;;;10.07;4.30;;;20.90;1.10;;;;;;5100732;28;20175;-69
2023/05/25 10:18:46;;;;;;;13.43;4.65;;;20.60;16.90;;;;;;5078949;28;20227;-70
2023/05/25 10:21:14;;;;;;;11.48;4.47;;;20.10;99.90;;;;;;5080550;28;20204;-70
2023/05/25 10:23:46;;;;;;;7.35;4.40;;;20.10;1.00;;;;;;5077343;28;20179;-72
2023/05/25 10:26:19;;;;;;;7.72;4.03;;;20.40;1.00;;;;;;5092277;28;20179;-74
2023/05/25 10:28:49;;;;;;;6.82;3.40;;;19.80;1.00;;;;;;5097840;28;20244;-71
2023/05/25 10:31:16;;;;;;;5.30;3.75;;;19.00;1.00;;;;;;5082273;28;20207;-69
2023/05/25 10:33:43;;;;;;;7.00;3.75;;;19.80;1.00;;;;;;5089487;28;20184;-70
2023/05/25 10:36:12;;;;;;;5.30;3.28;;;20.30;1.00;;;;;;5089998;28;20651;-71
2023/05/25 10:38:43;;;;;;;9.13;4.15;;;20.40;1.00;;;;;;5080264;28;20204;-72
2023/05/25 10:41:10;;;;;;;6.97;4.07;;;21.20;1.00;;;;;;5090635;28;20179;-72
2023/05/25 10:43:37;;;;;;;9.15;4.30;;;21.40;99.90;;;;;;5107364;28;20176;-72
2023/05/25 10:46:05;;;;;;;7.35;3.40;;;22.30;1.00;;;;;;5099975;28;20589;-73
2023/05/25 10:48:37;;;;;;;6.03;3.60;;;22.40;1.00;;;;;;5089780;28;20183;-71
2023/05/25 10:51:03;;;;;;;9.07;4.15;;;22.70;1.00;;;;;;5106350;28;20398;-71
2023/05/25 10:53:29;;;;;;;5.22;3.85;;;23.40;99.90;;;;;;5107798;28;20250;-72
2023/05/25 10:56:03;;;;;;;9.18;3.83;;;21.70;1.00;;;;;;5100225;28;20271;-71
2023/05/25 10:58:30;;;;;;;7.85;3.75;;;21.20;1.00;;;;;;5095662;27;20518;-72
2023/05/25 11:01:07;;;;;;;7.35;3.17;;;20.40;1.00;;;;;;5109165;28;20198;-72
2023/05/25 11:03:56;;;;;;;6.78;4.00;;;20.70;1.00;;;;;;5095015;28;20191;-72
2023/05/25 11:06:45;;;;;;;9.90;4.07;;;19.80;1.00;;;;;;5101162;28;20249;-72
2023/05/25 11:09:27;;;;;;;10.68;3.92;;;20.00;1.00;;;;;;5102949;28;20171;-72
2023/05/25 11:11:57;;;;;;;6.07;3.60;;;20.70;99.90;;;;;;5087236;28;20656;-71
2023/05/25 11:14:29;;;;;;;4.40;3.67;;;21.30;99.90;;;;;;5098050;28;20517;-71
2023/05/25 11:17:10;;;;;;;5.82;3.35;;;21.30;99.90;;;;;;5095384;28;20179;-71
2023/05/25 11:19:52;;;;;;;6.90;4.20;;;21.30;1.00;;;;;;5082395;28;20199;-71
2023/05/25 11:22:38;;;;;;;8.10;4.13;;;21.40;99.90;;;;;;5096553;28;20643;-72
2023/05/25 11:25:33;;;;;;;5.93;3.85;;;21.10;1.00;;;;;;5081316;28;20607;-71
2023/05/25 11:28:03;;;;;;;7.22;3.60;;;20.80;99.90;;;;;;5079855;28;20282;-71
2023/05/25 11:30:30;;;;;;;4.70;3.75;;;20.30;65.00;;;;;;5099271;28;20187;-71
2023/05/25 11:33:00;;;;;;;6.97;3.80;;;21.00;1.00;;;;;;5091804;28;20225;-71
2023/05/25 11:35:27;;;;;;;5.20;3.28;;;21.60;1.00;;;;;;5093067;28;20172;-71
2023/05/25 11:37:53;;;;;;;4.47;3.67;;;20.80;1.00;;;;;;5092753;28;20172;-72
2023/05/25 11:40:22;;;;;;;5.60;3.75;;;19.80;1.00;;;;;;5091407;28;20206;-72
2023/05/25 11:42:50;;;;;;;6.53;3.63;;;20.00;1.00;;;;;;5091397;28;20198;-72
2023/05/25 11:45:16;;;;;;;4.88;3.65;;;20.20;43.60;;;;;;5086361;28;20184;-70
2023/05/25 11:47:42;;;;;;;6.97;3.67;;;20.50;1.00;;;;;;5070797;28;20177;-71
2023/05/25 11:50:14;;;;;;;8.95;4.22;;;21.00;99.90;;;;;;5070868;28;20165;-71
2023/05/25 11:52:40;;;;;;;9.95;4.22;;;21.30;99.90;;;;;;5071400;28;20185;-70
2023/05/25 11:55:14;;;;;;;7.60;5.10;;;20.40;99.90;;;;;;5071067;28;20673;-70
2023/05/25 11:57:40;;;;;;;7.05;4.50;;;21.00;1.00;;;;;;5070369;28;20172;-70
2023/05/25 12:00:08;;;;;;;7.85;5.30;;;20.90;99.90;;;;;;5075947;28;20215;-70
2023/05/25 12:02:37;;;;;;;9.23;4.50;;;20.20;99.90;;;;;;5085711;28;20295;-69
2023/05/25 12:05:03;;;;;;;8.23;4.60;;;20.10;99.90;;;;;;5080876;28;20183;-71
2023/05/25 12:07:33;;;;;;;18.25;4.80;;;20.40;99.90;;;;;;5073581;28;20169;-73
2023/05/25 12:10:08;;;;;;;7.78;5.13;;;20.00;1.00;;;;;;5090491;28;20183;-71
2023/05/25 12:12:56;;;;;;;12.13;5.68;;;19.40;99.90;;;;;;5073548;28;20572;-71
2023/05/25 12:15:24;;;;;;;8.02;5.40;;;20.10;1.00;;;;;;5072237;28;20226;-70
2023/05/25 12:17:51;;;;;;;11.85;5.38;;;19.80;99.90;;;;;;5082961;28;20600;-72
2023/05/25 12:20:17;;;;;;;6.55;4.40;;;19.50;1.00;;;;;;5090197;28;20207;-67
2023/05/25 12:22:43;;;;;;;7.75;5.10;;;19.40;99.90;;;;;;5083405;28;20588;-70
2023/05/25 12:25:10;;;;;;;8.55;4.75;;;19.80;99.90;;;;;;5082400;28;20586;-71
2023/05/25 12:27:36;;;;;;;7.55;5.13;;;19.90;1.00;;;;;;5095700;28;20191;-70
2023/05/25 12:30:04;;;;;;;14.35;5.20;;;19.90;99.90;;;;;;5088373;28;20638;-70
2023/05/25 12:32:29;;;;;;;6.85;4.85;;;19.50;1.00;;;;;;5081348;28;20213;-70
2023/05/25 12:35:03;;;;;;;12.93;4.68;;;19.30;1.00;;;;;;5079689;28;20232;-70
2023/05/25 12:37:28;;;;;;;8.90;4.65;;;19.00;1.00;;;;;;5080876;28;20726;-70
2023/05/25 12:39:55;;;;;;;11.55;4.80;;;19.50;1.00;;;;;;5090726;28;20298;-68
2023/05/25 12:42:21;;;;;;;8.90;4.63;;;19.90;1.00;;;;;;5084680;28;20313;-69
2023/05/25 12:44:53;;;;;;;6.43;4.72;;;19.80;99.90;;;;;;5083733;28;20267;-69